sensor_id;sensor_type;location;lat;lon;timestamp;temperature;humidity
57829;DHT22;43657;52.698;6.314;2022-07-26T00:01:27;17.20;99.90
57829;DHT22;43657;52.698;6.314;2022-07-26T00:03:53;17.10;99.90
57829;DHT22;43657;52.698;6.314;2022-07-26T00:06:19;17.10;99.90
57829;DHT22;43657;52.698;6.314;2022-07-26T00:08:46;17.20;99.90
57829;DHT22;43657;52.698;6.314;2022-07-26T00:11:12;17.10;99.90
57829;DHT22;43657;52.698;6.314;2022-07-26T00:13:37;17.10;99.90
57829;DHT22;43657;52.698;6.314;2022-07-26T00:16:04;17.10;99.90
57829;DHT22;43657;52.698;6.314;2022-07-26T00:18:29;17.10;99.90
57829;DHT22;43657;52.698;6.314;2022-07-26T00:20:55;17.10;99.90
57829;DHT22;43657;52.698;6.314;2022-07-26T00:23:21;17.10;99.90
57829;DHT22;43657;52.698;6.314;2022-07-26T00:26:04;17.10;99.90
57829;DHT22;43657;52.698;6.314;2022-07-26T00:28:30;17.10;99.90
57829;DHT22;43657;52.698;6.314;2022-07-26T00:30:56;17.00;99.90
57829;DHT22;43657;52.698;6.314;2022-07-26T00:33:21;17.00;99.90
57829;DHT22;43657;52.698;6.314;2022-07-26T00:35:47;17.00;99.90
57829;DHT22;43657;52.698;6.314;2022-07-26T00:38:12;17.00;99.90
57829;DHT22;43657;52.698;6.314;2022-07-26T00:40:38;16.80;99.90
57829;DHT22;43657;52.698;6.314;2022-07-26T00:43:04;16.80;99.90
57829;DHT22;43657;52.698;6.314;2022-07-26T00:45:29;16.90;99.90
57829;DHT22;43657;52.698;6.314;2022-07-26T00:47:55;16.90;99.90
57829;DHT22;43657;52.698;6.314;2022-07-26T00:50:20;16.80;99.90
57829;DHT22;43657;52.698;6.314;2022-07-26T00:52:48;16.80;99.90
57829;DHT22;43657;52.698;6.314;2022-07-26T00:55:14;16.80;99.90
57829;DHT22;43657;52.698;6.314;2022-07-26T00:57:41;16.70;99.90
57829;DHT22;43657;52.698;6.314;2022-07-26T01:00:12;16.80;99.90
57829;DHT22;43657;52.698;6.314;2022-07-26T01:02:38;16.70;99.90
57829;DHT22;43657;52.698;6.314;2022-07-26T01:05:05;16.80;99.90
57829;DHT22;43657;52.698;6.314;2022-07-26T01:07:31;16.80;99.90
57829;DHT22;43657;52.698;6.314;2022-07-26T01:09:57;16.80;99.90
57829;DHT22;43657;52.698;6.314;2022-07-26T01:12:22;16.70;99.90
57829;DHT22;43657;52.698;6.314;2022-07-26T01:14:48;16.80;99.90
57829;DHT22;43657;52.698;6.314;2022-07-26T01:17:14;16.70;99.90
57829;DHT22;43657;52.698;6.314;2022-07-26T01:19:40;16.70;99.90
57829;DHT22;43657;52.698;6.314;2022-07-26T01:22:07;16.70;99.90
57829;DHT22;43657;52.698;6.314;2022-07-26T01:24:33;16.70;99.90
57829;DHT22;43657;52.698;6.314;2022-07-26T01:26:58;16.70;99.90
57829;DHT22;43657;52.698;6.314;2022-07-26T01:29:24;16.60;99.90
57829;DHT22;43657;52.698;6.314;2022-07-26T01:31:50;16.60;99.90
57829;DHT22;43657;52.698;6.314;2022-07-26T01:34:16;16.60;99.90
57829;DHT22;43657;52.698;6.314;2022-07-26T01:36:42;16.50;99.90
57829;DHT22;43657;52.698;6.314;2022-07-26T01:39:08;16.60;99.90
57829;DHT22;43657;52.698;6.314;2022-07-26T01:41:34;16.50;99.90
57829;DHT22;43657;52.698;6.314;2022-07-26T01:43:59;16.40;99.90
57829;DHT22;43657;52.698;6.314;2022-07-26T01:46:25;16.50;99.90
57829;DHT22;43657;52.698;6.314;2022-07-26T01:48:51;16.40;99.90
57829;DHT22;43657;52.698;6.314;2022-07-26T01:51:16;16.40;99.90
57829;DHT22;43657;52.698;6.314;2022-07-26T01:53:42;16.30;99.90
57829;DHT22;43657;52.698;6.314;2022-07-26T01:56:13;16.30;99.90
57829;DHT22;43657;52.698;6.314;2022-07-26T01:58:40;16.20;99.90
57829;DHT22;43657;52.698;6.314;2022-07-26T02:01:06;16.30;99.90
57829;DHT22;43657;52.698;6.314;2022-07-26T02:03:32;16.20;99.90
57829;DHT22;43657;52.698;6.314;2022-07-26T02:05:58;16.20;99.90
57829;DHT22;43657;52.698;6.314;2022-07-26T02:08:24;16.20;99.90
57829;DHT22;43657;52.698;6.314;2022-07-26T02:10:50;16.20;99.90
57829;DHT22;43657;52.698;6.314;2022-07-26T02:15:55;16.20;99.90
57829;DHT22;43657;52.698;6.314;2022-07-26T02:18:24;16.20;99.90
57829;DHT22;43657;52.698;6.314;2022-07-26T02:20:50;16.20;99.90
57829;DHT22;43657;52.698;6.314;2022-07-26T02:23:15;16.20;99.90
57829;DHT22;43657;52.698;6.314;2022-07-26T02:25:41;16.20;99.90
57829;DHT22;43657;52.698;6.314;2022-07-26T02:28:06;16.20;99.90
57829;DHT22;43657;52.698;6.314;2022-07-26T02:30:32;16.20;99.90
57829;DHT22;43657;52.698;6.314;2022-07-26T02:32:58;16.20;99.90
57829;DHT22;43657;52.698;6.314;2022-07-26T02:35:23;16.30;99.90
57829;DHT22;43657;52.698;6.314;2022-07-26T02:37:49;16.30;99.90
57829;DHT22;43657;52.698;6.314;2022-07-26T02:40:15;16.30;99.90
57829;DHT22;43657;52.698;6.314;2022-07-26T02:42:41;16.30;99.90
57829;DHT22;43657;52.698;6.314;2022-07-26T02:50:11;16.30;99.90
57829;DHT22;43657;52.698;6.314;2022-07-26T02:52:39;16.30;99.90
57829;DHT22;43657;52.698;6.314;2022-07-26T02:59:04;16.30;99.90
57829;DHT22;43657;52.698;6.314;2022-07-26T03:01:30;16.30;99.90
57829;DHT22;43657;52.698;6.314;2022-07-26T05:13:25;16.70;99.90
57829;DHT22;43657;52.698;6.314;2022-07-26T05:15:50;16.70;99.90
57829;DHT22;43657;52.698;6.314;2022-07-26T05:18:16;16.70;99.90
57829;DHT22;43657;52.698;6.314;2022-07-26T05:20:42;16.70;99.90
57829;DHT22;43657;52.698;6.314;2022-07-26T05:23:08;16.80;99.90
57829;DHT22;43657;52.698;6.314;2022-07-26T05:25:34;16.80;99.90
57829;DHT22;43657;52.698;6.314;2022-07-26T05:27:59;16.90;99.90
57829;DHT22;43657;52.698;6.314;2022-07-26T05:30:25;16.90;99.90
57829;DHT22;43657;52.698;6.314;2022-07-26T05:32:51;17.00;99.90
57829;DHT22;43657;52.698;6.314;2022-07-26T05:35:16;17.10;99.90
57829;DHT22;43657;52.698;6.314;2022-07-26T05:37:42;17.10;99.90
57829;DHT22;43657;52.698;6.314;2022-07-26T05:40:08;17.10;99.90
57829;DHT22;43657;52.698;6.314;2022-07-26T05:42:34;17.10;99.90
57829;DHT22;43657;52.698;6.314;2022-07-26T05:45:00;17.10;99.90
57829;DHT22;43657;52.698;6.314;2022-07-26T05:47:26;17.20;99.90
57829;DHT22;43657;52.698;6.314;2022-07-26T05:49:52;17.20;99.90
57829;DHT22;43657;52.698;6.314;2022-07-26T05:52:17;17.10;99.90
57829;DHT22;43657;52.698;6.314;2022-07-26T05:54:43;17.20;99.90
57829;DHT22;43657;52.698;6.314;2022-07-26T05:57:08;17.00;99.90
57829;DHT22;43657;52.698;6.314;2022-07-26T05:59:34;17.00;99.90
57829;DHT22;43657;52.698;6.314;2022-07-26T06:02:00;16.80;99.90
57829;DHT22;43657;52.698;6.314;2022-07-26T06:04:26;16.70;99.90
57829;DHT22;43657;52.698;6.314;2022-07-26T06:06:52;16.60;99.90
57829;DHT22;43657;52.698;6.314;2022-07-26T06:09:19;16.60;99.90
57829;DHT22;43657;52.698;6.314;2022-07-26T06:11:44;16.60;99.90
57829;DHT22;43657;52.698;6.314;2022-07-26T06:14:10;16.50;99.90
57829;DHT22;43657;52.698;6.314;2022-07-26T06:16:35;16.60;99.90
57829;DHT22;43657;52.698;6.314;2022-07-26T06:19:01;16.60;99.90
57829;DHT22;43657;52.698;6.314;2022-07-26T06:21:27;16.60;99.90
57829;DHT22;43657;52.698;6.314;2022-07-26T06:23:52;16.70;99.90
57829;DHT22;43657;52.698;6.314;2022-07-26T06:26:18;16.70;99.90
57829;DHT22;43657;52.698;6.314;2022-07-26T06:28:43;16.70;99.90
57829;DHT22;43657;52.698;6.314;2022-07-26T06:31:09;16.80;99.90
57829;DHT22;43657;52.698;6.314;2022-07-26T06:33:35;16.80;99.90
57829;DHT22;43657;52.698;6.314;2022-07-26T06:36:01;16.80;99.90
57829;DHT22;43657;52.698;6.314;2022-07-26T06:38:27;16.90;99.90
57829;DHT22;43657;52.698;6.314;2022-07-26T06:40:53;16.90;99.90
57829;DHT22;43657;52.698;6.314;2022-07-26T06:43:19;16.90;99.90
57829;DHT22;43657;52.698;6.314;2022-07-26T06:45:45;17.00;99.90
57829;DHT22;43657;52.698;6.314;2022-07-26T06:48:10;17.00;99.90
57829;DHT22;43657;52.698;6.314;2022-07-26T06:50:36;17.10;99.90
57829;DHT22;43657;52.698;6.314;2022-07-26T06:53:02;17.10;99.90
57829;DHT22;43657;52.698;6.314;2022-07-26T06:55:28;17.10;99.90
57829;DHT22;43657;52.698;6.314;2022-07-26T06:57:54;17.10;99.90
57829;DHT22;43657;52.698;6.314;2022-07-26T07:00:19;17.20;99.90
57829;DHT22;43657;52.698;6.314;2022-07-26T07:02:45;17.20;99.90
57829;DHT22;43657;52.698;6.314;2022-07-26T07:05:11;17.20;99.90
57829;DHT22;43657;52.698;6.314;2022-07-26T07:07:37;17.20;99.90
57829;DHT22;43657;52.698;6.314;2022-07-26T07:10:04;17.40;99.90
57829;DHT22;43657;52.698;6.314;2022-07-26T07:12:29;17.40;99.90
57829;DHT22;43657;52.698;6.314;2022-07-26T07:14:55;17.50;99.90
57829;DHT22;43657;52.698;6.314;2022-07-26T07:17:21;17.30;99.90
57829;DHT22;43657;52.698;6.314;2022-07-26T07:19:47;17.20;99.90
57829;DHT22;43657;52.698;6.314;2022-07-26T07:22:13;17.30;99.90
57829;DHT22;43657;52.698;6.314;2022-07-26T07:24:39;17.30;99.90
57829;DHT22;43657;52.698;6.314;2022-07-26T07:27:05;17.30;99.90
57829;DHT22;43657;52.698;6.314;2022-07-26T07:29:31;17.30;99.90
57829;DHT22;43657;52.698;6.314;2022-07-26T07:31:56;17.20;99.90
57829;DHT22;43657;52.698;6.314;2022-07-26T07:34:22;17.20;99.90
57829;DHT22;43657;52.698;6.314;2022-07-26T07:36:51;17.30;99.90
57829;DHT22;43657;52.698;6.314;2022-07-26T07:39:17;17.30;99.90
57829;DHT22;43657;52.698;6.314;2022-07-26T07:41:44;17.40;99.90
57829;DHT22;43657;52.698;6.314;2022-07-26T07:44:10;17.50;99.90
57829;DHT22;43657;52.698;6.314;2022-07-26T07:46:35;17.70;99.90
57829;DHT22;43657;52.698;6.314;2022-07-26T07:49:01;17.80;99.90
57829;DHT22;43657;52.698;6.314;2022-07-26T07:51:27;17.90;99.90
57829;DHT22;43657;52.698;6.314;2022-07-26T07:53:53;18.00;99.90
57829;DHT22;43657;52.698;6.314;2022-07-26T07:56:19;18.20;99.90
57829;DHT22;43657;52.698;6.314;2022-07-26T07:58:45;18.30;99.90
57829;DHT22;43657;52.698;6.314;2022-07-26T08:01:11;18.30;99.90
57829;DHT22;43657;52.698;6.314;2022-07-26T08:03:36;18.20;99.90
57829;DHT22;43657;52.698;6.314;2022-07-26T08:06:05;18.10;99.90
57829;DHT22;43657;52.698;6.314;2022-07-26T08:08:31;18.00;99.90
57829;DHT22;43657;52.698;6.314;2022-07-26T08:10:57;17.90;99.90
57829;DHT22;43657;52.698;6.314;2022-07-26T08:13:23;17.90;99.90
57829;DHT22;43657;52.698;6.314;2022-07-26T08:15:50;18.00;99.90
57829;DHT22;43657;52.698;6.314;2022-07-26T08:18:16;18.10;99.90
57829;DHT22;43657;52.698;6.314;2022-07-26T08:20:41;18.20;99.90
57829;DHT22;43657;52.698;6.314;2022-07-26T08:23:07;18.60;99.90
57829;DHT22;43657;52.698;6.314;2022-07-26T08:25:32;19.10;99.90
57829;DHT22;43657;52.698;6.314;2022-07-26T08:27:58;19.80;99.90
57829;DHT22;43657;52.698;6.314;2022-07-26T08:30:23;20.30;99.90
57829;DHT22;43657;52.698;6.314;2022-07-26T08:32:49;20.50;99.90
57829;DHT22;43657;52.698;6.314;2022-07-26T08:35:15;20.40;99.90
57829;DHT22;43657;52.698;6.314;2022-07-26T08:37:40;20.30;99.90
57829;DHT22;43657;52.698;6.314;2022-07-26T08:40:06;20.20;99.90
57829;DHT22;43657;52.698;6.314;2022-07-26T08:42:32;20.10;99.90
57829;DHT22;43657;52.698;6.314;2022-07-26T08:44:58;20.00;99.90
57829;DHT22;43657;52.698;6.314;2022-07-26T08:47:24;20.10;99.90
57829;DHT22;43657;52.698;6.314;2022-07-26T08:49:50;20.30;99.90
57829;DHT22;43657;52.698;6.314;2022-07-26T08:52:15;20.50;99.90
57829;DHT22;43657;52.698;6.314;2022-07-26T08:54:49;20.40;99.90
57829;DHT22;43657;52.698;6.314;2022-07-26T08:57:15;20.10;99.90
57829;DHT22;43657;52.698;6.314;2022-07-26T08:59:41;19.80;99.90
57829;DHT22;43657;52.698;6.314;2022-07-26T09:02:11;19.60;99.90
57829;DHT22;43657;52.698;6.314;2022-07-26T09:04:40;19.40;99.90
57829;DHT22;43657;52.698;6.314;2022-07-26T09:07:17;19.20;99.90
57829;DHT22;43657;52.698;6.314;2022-07-26T09:10:02;19.10;99.90
57829;DHT22;43657;52.698;6.314;2022-07-26T09:12:30;18.90;99.90
57829;DHT22;43657;52.698;6.314;2022-07-26T09:14:56;18.90;99.90
57829;DHT22;43657;52.698;6.314;2022-07-26T09:17:24;19.00;99.90
57829;DHT22;43657;52.698;6.314;2022-07-26T09:20:04;19.00;99.90
57829;DHT22;43657;52.698;6.314;2022-07-26T09:22:30;19.50;99.90
57829;DHT22;43657;52.698;6.314;2022-07-26T09:24:57;20.10;99.90
57829;DHT22;43657;52.698;6.314;2022-07-26T09:27:23;20.70;99.90
57829;DHT22;43657;52.698;6.314;2022-07-26T09:29:50;21.40;99.90
57829;DHT22;43657;52.698;6.314;2022-07-26T09:32:24;22.10;99.90
57829;DHT22;43657;52.698;6.314;2022-07-26T09:34:54;22.50;99.90
57829;DHT22;43657;52.698;6.314;2022-07-26T09:37:40;22.80;99.90
57829;DHT22;43657;52.698;6.314;2022-07-26T09:40:12;22.60;99.90
57829;DHT22;43657;52.698;6.314;2022-07-26T09:45:18;22.40;99.90
57829;DHT22;43657;52.698;6.314;2022-07-26T09:47:44;22.30;99.90
57829;DHT22;43657;52.698;6.314;2022-07-26T09:50:13;22.20;99.90
57829;DHT22;43657;52.698;6.314;2022-07-26T09:55:21;22.30;99.90
57829;DHT22;43657;52.698;6.314;2022-07-26T09:57:50;22.20;99.90
57829;DHT22;43657;52.698;6.314;2022-07-26T10:00:16;22.10;99.90
57829;DHT22;43657;52.698;6.314;2022-07-26T10:02:41;21.80;99.90
57829;DHT22;43657;52.698;6.314;2022-07-26T10:05:07;21.40;99.90
57829;DHT22;43657;52.698;6.314;2022-07-26T10:07:33;21.10;99.90
57829;DHT22;43657;52.698;6.314;2022-07-26T10:10:21;20.80;99.90
57829;DHT22;43657;52.698;6.314;2022-07-26T10:12:52;20.50;99.90
57829;DHT22;43657;52.698;6.314;2022-07-26T10:15:45;20.40;99.90
57829;DHT22;43657;52.698;6.314;2022-07-26T10:23:47;21.00;99.90
57829;DHT22;43657;52.698;6.314;2022-07-26T10:34:08;21.10;99.90
57829;DHT22;43657;52.698;6.314;2022-07-26T10:36:35;20.90;99.90
57829;DHT22;43657;52.698;6.314;2022-07-26T10:41:57;20.20;99.90
57829;DHT22;43657;52.698;6.314;2022-07-26T10:44:30;19.90;99.90
57829;DHT22;43657;52.698;6.314;2022-07-26T10:49:53;19.30;99.90
57829;DHT22;43657;52.698;6.314;2022-07-26T10:52:31;19.10;99.90
57829;DHT22;43657;52.698;6.314;2022-07-26T10:57:33;18.90;99.90
57829;DHT22;43657;52.698;6.314;2022-07-26T11:00:00;18.90;99.90
57829;DHT22;43657;52.698;6.314;2022-07-26T11:02:28;19.00;99.90
57829;DHT22;43657;52.698;6.314;2022-07-26T11:05:08;19.20;99.90
57829;DHT22;43657;52.698;6.314;2022-07-26T11:10:24;20.00;99.90
57829;DHT22;43657;52.698;6.314;2022-07-26T11:13:04;20.60;99.90
57829;DHT22;43657;52.698;6.314;2022-07-26T11:15:30;21.20;99.90
57829;DHT22;43657;52.698;6.314;2022-07-26T11:20:39;21.60;99.90
57829;DHT22;43657;52.698;6.314;2022-07-26T11:23:28;21.60;99.90
57829;DHT22;43657;52.698;6.314;2022-07-26T11:49:12;20.30;99.90
57829;DHT22;43657;52.698;6.314;2022-07-26T11:59:01;20.00;99.90
57829;DHT22;43657;52.698;6.314;2022-07-26T12:02:53;20.20;99.90
57829;DHT22;43657;52.698;6.314;2022-07-26T12:09:31;20.20;99.90
57829;DHT22;43657;52.698;6.314;2022-07-26T12:13:28;20.50;99.90
57829;DHT22;43657;52.698;6.314;2022-07-26T12:16:39;21.10;99.90
57829;DHT22;43657;52.698;6.314;2022-07-26T12:19:41;21.50;99.90
57829;DHT22;43657;52.698;6.314;2022-07-26T12:22:57;21.70;93.70
57829;DHT22;43657;52.698;6.314;2022-07-26T12:26:24;21.70;96.90
57829;DHT22;43657;52.698;6.314;2022-07-26T12:38:43;21.90;91.10
57829;DHT22;43657;52.698;6.314;2022-07-26T13:12:21;23.40;89.60
57829;DHT22;43657;52.698;6.314;2022-07-26T13:15:00;23.40;89.60
57829;DHT22;43657;52.698;6.314;2022-07-26T13:17:54;23.20;89.50
57829;DHT22;43657;52.698;6.314;2022-07-26T13:20:24;23.30;89.40
57829;DHT22;43657;52.698;6.314;2022-07-26T13:23:03;23.50;88.20
57829;DHT22;43657;52.698;6.314;2022-07-26T13:25:53;23.70;86.90
57829;DHT22;43657;52.698;6.314;2022-07-26T13:28:38;23.70;83.10
57829;DHT22;43657;52.698;6.314;2022-07-26T13:31:05;23.50;86.00
57829;DHT22;43657;52.698;6.314;2022-07-26T13:33:47;23.20;85.80
57829;DHT22;43657;52.698;6.314;2022-07-26T13:36:18;23.00;83.90
57829;DHT22;43657;52.698;6.314;2022-07-26T13:38:51;22.80;86.90
57829;DHT22;43657;52.698;6.314;2022-07-26T13:41:18;22.80;88.60
57829;DHT22;43657;52.698;6.314;2022-07-26T13:43:51;22.80;86.60
57829;DHT22;43657;52.698;6.314;2022-07-26T13:46:23;22.60;85.90
57829;DHT22;43657;52.698;6.314;2022-07-26T13:48:52;22.40;86.40
57829;DHT22;43657;52.698;6.314;2022-07-26T13:51:36;22.30;86.00
57829;DHT22;43657;52.698;6.314;2022-07-26T13:54:21;22.20;86.80
57829;DHT22;43657;52.698;6.314;2022-07-26T14:04:34;22.50;83.20
57829;DHT22;43657;52.698;6.314;2022-07-26T14:17:22;23.20;83.30
57829;DHT22;43657;52.698;6.314;2022-07-26T14:19:47;23.40;83.50
57829;DHT22;43657;52.698;6.314;2022-07-26T14:22:13;23.50;83.30
57829;DHT22;43657;52.698;6.314;2022-07-26T14:24:38;23.20;81.10
57829;DHT22;43657;52.698;6.314;2022-07-26T14:27:04;22.90;83.00
57829;DHT22;43657;52.698;6.314;2022-07-26T14:29:30;22.50;81.30
57829;DHT22;43657;52.698;6.314;2022-07-26T15:03:08;24.40;75.30
57829;DHT22;43657;52.698;6.314;2022-07-26T15:05:37;24.10;75.90
57829;DHT22;43657;52.698;6.314;2022-07-26T15:08:13;23.80;74.80
57829;DHT22;43657;52.698;6.314;2022-07-26T15:15:05;23.10;75.20
57829;DHT22;43657;52.698;6.314;2022-07-26T16:00:47;19.40;81.90
57829;DHT22;43657;52.698;6.314;2022-07-26T16:03:33;19.30;80.70
57829;DHT22;43657;52.698;6.314;2022-07-26T16:06:15;19.30;81.80
57829;DHT22;43657;52.698;6.314;2022-07-26T16:12:27;19.20;82.50
57829;DHT22;43657;52.698;6.314;2022-07-26T16:14:52;19.30;82.70
57829;DHT22;43657;52.698;6.314;2022-07-26T16:17:18;19.30;83.90
57829;DHT22;43657;52.698;6.314;2022-07-26T16:19:43;19.30;81.80
57829;DHT22;43657;52.698;6.314;2022-07-26T16:22:09;19.30;83.30
57829;DHT22;43657;52.698;6.314;2022-07-26T16:24:35;19.30;84.90
57829;DHT22;43657;52.698;6.314;2022-07-26T16:27:01;19.30;84.40
57829;DHT22;43657;52.698;6.314;2022-07-26T16:29:27;19.30;84.70
57829;DHT22;43657;52.698;6.314;2022-07-26T16:31:52;19.20;85.40
57829;DHT22;43657;52.698;6.314;2022-07-26T16:34:20;19.20;85.20
57829;DHT22;43657;52.698;6.314;2022-07-26T16:36:46;19.10;85.90
57829;DHT22;43657;52.698;6.314;2022-07-26T16:39:12;19.00;87.20
57829;DHT22;43657;52.698;6.314;2022-07-26T16:41:37;19.00;87.80
57829;DHT22;43657;52.698;6.314;2022-07-26T16:44:04;19.00;89.20
57829;DHT22;43657;52.698;6.314;2022-07-26T16:46:30;19.10;89.20
57829;DHT22;43657;52.698;6.314;2022-07-26T16:48:56;19.10;88.50
57829;DHT22;43657;52.698;6.314;2022-07-26T16:51:21;19.10;88.10
57829;DHT22;43657;52.698;6.314;2022-07-26T16:53:47;19.00;89.50
57829;DHT22;43657;52.698;6.314;2022-07-26T16:56:16;19.00;90.10
57829;DHT22;43657;52.698;6.314;2022-07-26T16:58:43;18.90;90.50
57829;DHT22;43657;52.698;6.314;2022-07-26T17:01:08;18.90;90.10
57829;DHT22;43657;52.698;6.314;2022-07-26T17:03:34;18.90;88.70
57829;DHT22;43657;52.698;6.314;2022-07-26T17:06:00;18.80;90.00
57829;DHT22;43657;52.698;6.314;2022-07-26T17:08:28;18.80;90.70
57829;DHT22;43657;52.698;6.314;2022-07-26T17:10:53;18.70;90.80
57829;DHT22;43657;52.698;6.314;2022-07-26T17:13:19;18.70;91.30
57829;DHT22;43657;52.698;6.314;2022-07-26T17:15:45;18.70;91.10
57829;DHT22;43657;52.698;6.314;2022-07-26T17:18:12;18.60;92.10
57829;DHT22;43657;52.698;6.314;2022-07-26T17:20:37;18.60;92.40
57829;DHT22;43657;52.698;6.314;2022-07-26T17:23:03;18.50;92.70
57829;DHT22;43657;52.698;6.314;2022-07-26T17:25:29;18.40;92.70
57829;DHT22;43657;52.698;6.314;2022-07-26T17:27:55;18.30;93.40
57829;DHT22;43657;52.698;6.314;2022-07-26T17:30:20;18.20;94.70
57829;DHT22;43657;52.698;6.314;2022-07-26T17:32:46;18.10;95.50
57829;DHT22;43657;52.698;6.314;2022-07-26T17:35:14;18.10;96.60
57829;DHT22;43657;52.698;6.314;2022-07-26T17:37:40;18.00;97.70
57829;DHT22;43657;52.698;6.314;2022-07-26T17:40:07;18.10;98.90
57829;DHT22;43657;52.698;6.314;2022-07-26T17:42:33;18.10;99.70
57829;DHT22;43657;52.698;6.314;2022-07-26T17:44:58;18.10;99.90
57829;DHT22;43657;52.698;6.314;2022-07-26T17:47:24;18.10;99.90
57829;DHT22;43657;52.698;6.314;2022-07-26T17:49:49;17.90;99.90
57829;DHT22;43657;52.698;6.314;2022-07-26T17:52:15;18.00;99.90
57829;DHT22;43657;52.698;6.314;2022-07-26T17:54:40;17.90;99.90
57829;DHT22;43657;52.698;6.314;2022-07-26T17:57:06;17.90;99.50
57829;DHT22;43657;52.698;6.314;2022-07-26T17:59:32;17.80;99.70
57829;DHT22;43657;52.698;6.314;2022-07-26T18:02:00;17.80;99.80
57829;DHT22;43657;52.698;6.314;2022-07-26T18:04:26;17.70;99.60
57829;DHT22;43657;52.698;6.314;2022-07-26T18:06:51;17.60;99.70
57829;DHT22;43657;52.698;6.314;2022-07-26T18:09:17;17.60;99.90
57829;DHT22;43657;52.698;6.314;2022-07-26T18:11:42;17.50;99.90
57829;DHT22;43657;52.698;6.314;2022-07-26T18:14:09;17.50;99.90
57829;DHT22;43657;52.698;6.314;2022-07-26T18:16:36;17.30;99.90
57829;DHT22;43657;52.698;6.314;2022-07-26T18:19:03;17.20;99.90
57829;DHT22;43657;52.698;6.314;2022-07-26T18:21:29;17.30;99.90
57829;DHT22;43657;52.698;6.314;2022-07-26T18:23:55;17.20;99.90
57829;DHT22;43657;52.698;6.314;2022-07-26T18:26:22;17.10;99.90
57829;DHT22;43657;52.698;6.314;2022-07-26T18:28:49;17.10;99.90
57829;DHT22;43657;52.698;6.314;2022-07-26T18:31:14;17.00;99.90
57829;DHT22;43657;52.698;6.314;2022-07-26T18:33:40;17.00;99.90
57829;DHT22;43657;52.698;6.314;2022-07-26T18:36:06;16.90;99.90
57829;DHT22;43657;52.698;6.314;2022-07-26T18:38:32;16.80;99.90
57829;DHT22;43657;52.698;6.314;2022-07-26T18:40:58;16.80;99.90
57829;DHT22;43657;52.698;6.314;2022-07-26T18:43:23;16.70;99.90
57829;DHT22;43657;52.698;6.314;2022-07-26T18:45:49;16.50;99.90
57829;DHT22;43657;52.698;6.314;2022-07-26T18:48:14;16.50;99.90
57829;DHT22;43657;52.698;6.314;2022-07-26T18:50:40;16.40;99.90
57829;DHT22;43657;52.698;6.314;2022-07-26T18:53:06;16.40;99.90
57829;DHT22;43657;52.698;6.314;2022-07-26T18:55:34;16.20;99.90
57829;DHT22;43657;52.698;6.314;2022-07-26T18:58:00;16.20;99.90
57829;DHT22;43657;52.698;6.314;2022-07-26T19:00:26;16.20;99.90
57829;DHT22;43657;52.698;6.314;2022-07-26T19:02:54;16.10;99.90
57829;DHT22;43657;52.698;6.314;2022-07-26T19:05:22;16.00;99.90
57829;DHT22;43657;52.698;6.314;2022-07-26T19:07:48;15.90;99.90
57829;DHT22;43657;52.698;6.314;2022-07-26T19:10:14;15.80;99.90
57829;DHT22;43657;52.698;6.314;2022-07-26T19:12:40;15.70;99.90
57829;DHT22;43657;52.698;6.314;2022-07-26T19:15:06;15.50;99.90
57829;DHT22;43657;52.698;6.314;2022-07-26T19:17:33;15.50;99.90
57829;DHT22;43657;52.698;6.314;2022-07-26T19:19:59;15.40;99.90
57829;DHT22;43657;52.698;6.314;2022-07-26T19:22:27;15.40;99.90
57829;DHT22;43657;52.698;6.314;2022-07-26T19:24:54;15.40;99.90
57829;DHT22;43657;52.698;6.314;2022-07-26T19:27:20;15.30;99.90
57829;DHT22;43657;52.698;6.314;2022-07-26T19:29:46;15.20;99.90
57829;DHT22;43657;52.698;6.314;2022-07-26T19:32:13;15.10;99.90
57829;DHT22;43657;52.698;6.314;2022-07-26T19:34:39;15.10;99.90
57829;DHT22;43657;52.698;6.314;2022-07-26T19:37:04;15.00;99.90
57829;DHT22;43657;52.698;6.314;2022-07-26T19:39:30;15.00;99.90
57829;DHT22;43657;52.698;6.314;2022-07-26T19:41:56;14.90;99.90
57829;DHT22;43657;52.698;6.314;2022-07-26T19:44:21;15.00;99.90
57829;DHT22;43657;52.698;6.314;2022-07-26T19:46:49;14.90;99.90
57829;DHT22;43657;52.698;6.314;2022-07-26T19:49:15;15.00;99.90
57829;DHT22;43657;52.698;6.314;2022-07-26T19:51:41;14.90;99.90
57829;DHT22;43657;52.698;6.314;2022-07-26T19:54:07;14.90;99.90
57829;DHT22;43657;52.698;6.314;2022-07-26T19:56:33;14.90;99.90
57829;DHT22;43657;52.698;6.314;2022-07-26T19:58:59;14.80;99.90
57829;DHT22;43657;52.698;6.314;2022-07-26T20:01:28;14.80;99.90
57829;DHT22;43657;52.698;6.314;2022-07-26T20:03:55;14.80;99.90
57829;DHT22;43657;52.698;6.314;2022-07-26T20:06:21;14.70;99.90
57829;DHT22;43657;52.698;6.314;2022-07-26T20:08:48;14.60;99.90
57829;DHT22;43657;52.698;6.314;2022-07-26T20:11:15;14.50;99.90
57829;DHT22;43657;52.698;6.314;2022-07-26T20:13:42;14.40;99.90
57829;DHT22;43657;52.698;6.314;2022-07-26T20:16:08;14.30;99.90
57829;DHT22;43657;52.698;6.314;2022-07-26T20:18:33;14.20;99.90
57829;DHT22;43657;52.698;6.314;2022-07-26T20:20:59;14.10;99.90
57829;DHT22;43657;52.698;6.314;2022-07-26T20:23:25;14.10;99.90
57829;DHT22;43657;52.698;6.314;2022-07-26T20:25:52;13.90;99.90
57829;DHT22;43657;52.698;6.314;2022-07-26T20:28:18;13.80;99.90
57829;DHT22;43657;52.698;6.314;2022-07-26T20:30:44;13.80;99.90
57829;DHT22;43657;52.698;6.314;2022-07-26T20:33:13;13.60;99.90
57829;DHT22;43657;52.698;6.314;2022-07-26T20:35:38;13.50;99.90
57829;DHT22;43657;52.698;6.314;2022-07-26T20:38:04;13.40;99.90
57829;DHT22;43657;52.698;6.314;2022-07-26T20:40:30;13.30;99.90
57829;DHT22;43657;52.698;6.314;2022-07-26T20:42:56;13.20;99.90
57829;DHT22;43657;52.698;6.314;2022-07-26T20:45:22;13.20;99.90
57829;DHT22;43657;52.698;6.314;2022-07-26T20:47:49;13.10;99.90
57829;DHT22;43657;52.698;6.314;2022-07-26T20:50:17;13.00;99.90
57829;DHT22;43657;52.698;6.314;2022-07-26T20:52:47;12.90;99.90
57829;DHT22;43657;52.698;6.314;2022-07-26T20:55:15;12.80;99.90
57829;DHT22;43657;52.698;6.314;2022-07-26T20:57:42;12.80;99.90
57829;DHT22;43657;52.698;6.314;2022-07-26T21:00:08;12.70;99.90
57829;DHT22;43657;52.698;6.314;2022-07-26T21:02:35;12.70;99.90
57829;DHT22;43657;52.698;6.314;2022-07-26T21:05:01;12.70;99.90
57829;DHT22;43657;52.698;6.314;2022-07-26T21:07:27;12.70;99.90
57829;DHT22;43657;52.698;6.314;2022-07-26T21:09:53;12.50;99.90
57829;DHT22;43657;52.698;6.314;2022-07-26T21:12:18;12.50;99.90
57829;DHT22;43657;52.698;6.314;2022-07-26T21:14:46;12.50;99.90
57829;DHT22;43657;52.698;6.314;2022-07-26T21:17:12;12.50;99.90
57829;DHT22;43657;52.698;6.314;2022-07-26T21:19:38;12.50;99.90
57829;DHT22;43657;52.698;6.314;2022-07-26T21:22:04;12.40;99.90
57829;DHT22;43657;52.698;6.314;2022-07-26T21:24:30;12.40;99.90
57829;DHT22;43657;52.698;6.314;2022-07-26T21:26:55;12.40;99.90